sensor_id;sensor_type;location;lat;lon;timestamp;pressure;altitude;pressure_sealevel;temperature;humidity
60212;BME280;46079;48.686;15.598;2023-03-04T00:00:28;100160.31;;;18.69;36.29
60212;BME280;46079;48.686;15.598;2023-03-04T00:02:53;100166.38;;;18.70;36.14
60212;BME280;46079;48.686;15.598;2023-03-04T00:05:18;100159.47;;;18.69;36.14
60212;BME280;46079;48.686;15.598;2023-03-04T00:07:44;100156.84;;;18.69;36.17
60212;BME280;46079;48.686;15.598;2023-03-04T00:10:10;100164.72;;;18.69;36.21
60212;BME280;46079;48.686;15.598;2023-03-04T00:12:35;100164.81;;;18.67;36.34
60212;BME280;46079;48.686;15.598;2023-03-04T00:15:01;100165.66;;;18.67;36.15
60212;BME280;46079;48.686;15.598;2023-03-04T00:17:27;100156.97;;;18.67;36.15
60212;BME280;46079;48.686;15.598;2023-03-04T00:19:54;100155.16;;;18.67;36.23
60212;BME280;46079;48.686;15.598;2023-03-04T00:22:20;100160.41;;;18.67;36.17
60212;BME280;46079;48.686;15.598;2023-03-04T00:24:45;100156.97;;;18.67;36.16
60212;BME280;46079;48.686;15.598;2023-03-04T00:27:11;100156.13;;;18.66;36.17
60212;BME280;46079;48.686;15.598;2023-03-04T00:29:36;100150.06;;;18.66;36.10
60212;BME280;46079;48.686;15.598;2023-03-04T00:32:02;100157.09;;;18.65;36.21
60212;BME280;46079;48.686;15.598;2023-03-04T00:34:27;100153.50;;;18.66;36.12
60212;BME280;46079;48.686;15.598;2023-03-04T00:36:53;100149.25;;;18.65;36.08
60212;BME280;46079;48.686;15.598;2023-03-04T00:39:19;100151.88;;;18.65;36.02
60212;BME280;46079;48.686;15.598;2023-03-04T00:41:44;100144.94;;;18.64;36.12
60212;BME280;46079;48.686;15.598;2023-03-04T00:44:10;100141.38;;;18.65;36.16
60212;BME280;46079;48.686;15.598;2023-03-04T00:46:36;100139.69;;;18.64;36.15
60212;BME280;46079;48.686;15.598;2023-03-04T00:49:01;100140.66;;;18.63;36.10
60212;BME280;46079;48.686;15.598;2023-03-04T00:51:27;100142.31;;;18.64;36.09
60212;BME280;46079;48.686;15.598;2023-03-04T00:53:52;100131.84;;;18.64;36.01
60212;BME280;46079;48.686;15.598;2023-03-04T00:56:17;100129.22;;;18.64;35.98
60212;BME280;46079;48.686;15.598;2023-03-04T00:58:43;100124.13;;;18.63;36.00
60212;BME280;46079;48.686;15.598;2023-03-04T01:01:09;100116.25;;;18.63;36.03
60212;BME280;46079;48.686;15.598;2023-03-04T01:03:34;100117.09;;;18.63;36.10
60212;BME280;46079;48.686;15.598;2023-03-04T01:06:00;100118.03;;;18.62;36.14
60212;BME280;46079;48.686;15.598;2023-03-04T01:08:25;100110.19;;;18.62;36.16
60212;BME280;46079;48.686;15.598;2023-03-04T01:10:51;100110.19;;;18.62;35.99
60212;BME280;46079;48.686;15.598;2023-03-04T01:13:17;100111.13;;;18.61;35.92
60212;BME280;46079;48.686;15.598;2023-03-04T01:15:43;100111.94;;;18.62;35.76
60212;BME280;46079;48.686;15.598;2023-03-04T01:18:08;100108.50;;;18.61;35.99
60212;BME280;46079;48.686;15.598;2023-03-04T01:20:34;100106.84;;;18.60;36.04
60212;BME280;46079;48.686;15.598;2023-03-04T01:22:59;100106.84;;;18.60;35.99
60212;BME280;46079;48.686;15.598;2023-03-04T01:25:24;100103.25;;;18.61;36.07
60212;BME280;46079;48.686;15.598;2023-03-04T01:27:50;100101.59;;;18.60;35.98
60212;BME280;46079;48.686;15.598;2023-03-04T01:30:16;100096.38;;;18.60;35.98
60212;BME280;46079;48.686;15.598;2023-03-04T01:32:41;100087.69;;;18.60;36.10
60212;BME280;46079;48.686;15.598;2023-03-04T01:35:07;100092.91;;;18.60;36.01
60212;BME280;46079;48.686;15.598;2023-03-04T01:37:33;100086.00;;;18.59;36.05
60212;BME280;46079;48.686;15.598;2023-03-04T01:39:58;100088.63;;;18.59;35.93
60212;BME280;46079;48.686;15.598;2023-03-04T01:42:25;100086.84;;;18.59;35.94
60212;BME280;46079;48.686;15.598;2023-03-04T01:44:52;100091.25;;;18.59;35.88
60212;BME280;46079;48.686;15.598;2023-03-04T01:47:18;100083.53;;;18.57;35.87
60212;BME280;46079;48.686;15.598;2023-03-04T01:49:50;100079.09;;;18.58;36.01
60212;BME280;46079;48.686;15.598;2023-03-04T01:52:17;100076.47;;;18.58;35.94
60212;BME280;46079;48.686;15.598;2023-03-04T01:54:42;100080.91;;;18.57;35.94
60212;BME280;46079;48.686;15.598;2023-03-04T01:57:22;100073.03;;;18.57;35.78
60212;BME280;46079;48.686;15.598;2023-03-04T02:00:14;100068.75;;;18.56;35.96
60212;BME280;46079;48.686;15.598;2023-03-04T02:02:42;100065.19;;;18.57;36.01
60212;BME280;46079;48.686;15.598;2023-03-04T02:05:07;100054.69;;;18.57;35.98
60212;BME280;46079;48.686;15.598;2023-03-04T02:07:33;100047.78;;;18.56;36.01
60212;BME280;46079;48.686;15.598;2023-03-04T02:09:59;100043.41;;;18.57;35.92
60212;BME280;46079;48.686;15.598;2023-03-04T02:12:24;100043.50;;;18.55;36.07
60212;BME280;46079;48.686;15.598;2023-03-04T02:14:50;100047.78;;;18.56;35.85
60212;BME280;46079;48.686;15.598;2023-03-04T02:17:15;100036.47;;;18.56;35.88
60212;BME280;46079;48.686;15.598;2023-03-04T02:19:50;100045.28;;;18.55;35.90
60212;BME280;46079;48.686;15.598;2023-03-04T02:22:20;100041.84;;;18.54;35.87
60212;BME280;46079;48.686;15.598;2023-03-04T02:24:49;100044.47;;;18.54;36.01
60212;BME280;46079;48.686;15.598;2023-03-04T02:27:16;100031.47;;;18.53;35.88
60212;BME280;46079;48.686;15.598;2023-03-04T02:29:42;100037.56;;;18.53;35.90
60212;BME280;46079;48.686;15.598;2023-03-04T02:32:10;100043.63;;;18.54;35.86
60212;BME280;46079;48.686;15.598;2023-03-04T02:34:37;100030.66;;;18.52;36.00
60212;BME280;46079;48.686;15.598;2023-03-04T02:37:05;100024.59;;;18.52;35.81
60212;BME280;46079;48.686;15.598;2023-03-04T02:39:38;100030.66;;;18.52;35.91
60212;BME280;46079;48.686;15.598;2023-03-04T02:42:04;100017.56;;;18.52;35.81
60212;BME280;46079;48.686;15.598;2023-03-04T02:44:36;100018.53;;;18.51;35.83
60212;BME280;46079;48.686;15.598;2023-03-04T02:47:04;100017.66;;;18.51;35.84
60212;BME280;46079;48.686;15.598;2023-03-04T02:49:31;100015.06;;;18.51;35.88
60212;BME280;46079;48.686;15.598;2023-03-04T02:52:06;100015.91;;;18.51;36.14
60212;BME280;46079;48.686;15.598;2023-03-04T02:54:32;100011.59;;;18.50;35.80
60212;BME280;46079;48.686;15.598;2023-03-04T02:57:01;100004.72;;;18.49;35.76
60212;BME280;46079;48.686;15.598;2023-03-04T02:59:26;99994.09;;;18.51;35.75
60212;BME280;46079;48.686;15.598;2023-03-04T03:01:52;99995.06;;;18.50;35.83
60212;BME280;46079;48.686;15.598;2023-03-04T03:04:19;99989.81;;;18.50;35.79
60212;BME280;46079;48.686;15.598;2023-03-04T03:06:44;99994.25;;;18.49;35.69
60212;BME280;46079;48.686;15.598;2023-03-04T03:09:10;99993.28;;;18.50;36.05
60212;BME280;46079;48.686;15.598;2023-03-04T03:11:37;99993.28;;;18.50;35.73
60212;BME280;46079;48.686;15.598;2023-03-04T03:14:03;99992.44;;;18.50;35.87
60212;BME280;46079;48.686;15.598;2023-03-04T03:16:28;99986.38;;;18.49;35.74
60212;BME280;46079;48.686;15.598;2023-03-04T03:18:54;99983.75;;;18.49;35.86
60212;BME280;46079;48.686;15.598;2023-03-04T03:21:19;99982.94;;;18.49;35.98
60212;BME280;46079;48.686;15.598;2023-03-04T03:23:45;99978.53;;;18.49;35.69
60212;BME280;46079;48.686;15.598;2023-03-04T03:26:10;99970.66;;;18.49;35.69
60212;BME280;46079;48.686;15.598;2023-03-04T03:28:36;99964.59;;;18.49;35.86
60212;BME280;46079;48.686;15.598;2023-03-04T03:31:01;99968.88;;;18.50;35.81
60212;BME280;46079;48.686;15.598;2023-03-04T03:33:27;99971.59;;;18.48;35.67
60212;BME280;46079;48.686;15.598;2023-03-04T03:35:52;99956.75;;;18.49;35.74
60212;BME280;46079;48.686;15.598;2023-03-04T03:38:18;99962.81;;;18.49;35.70
60212;BME280;46079;48.686;15.598;2023-03-04T03:40:43;99955.88;;;18.48;35.75
60212;BME280;46079;48.686;15.598;2023-03-04T03:43:08;99949.72;;;18.49;35.83
60212;BME280;46079;48.686;15.598;2023-03-04T03:45:34;99947.09;;;18.49;35.75
60212;BME280;46079;48.686;15.598;2023-03-04T03:47:59;99947.09;;;18.49;35.60
60212;BME280;46079;48.686;15.598;2023-03-04T03:50:25;99945.28;;;18.50;35.67
60212;BME280;46079;48.686;15.598;2023-03-04T03:52:50;99947.09;;;18.49;35.81
60212;BME280;46079;48.686;15.598;2023-03-04T03:55:16;99941.84;;;18.49;35.74
60212;BME280;46079;48.686;15.598;2023-03-04T03:57:41;99931.38;;;18.49;35.60
60212;BME280;46079;48.686;15.598;2023-03-04T04:00:08;99936.63;;;18.49;35.56
60212;BME280;46079;48.686;15.598;2023-03-04T04:02:34;99938.25;;;18.50;35.68
60212;BME280;46079;48.686;15.598;2023-03-04T04:04:59;99931.38;;;18.49;35.82
60212;BME280;46079;48.686;15.598;2023-03-04T04:07:24;99931.38;;;18.49;35.76
60212;BME280;46079;48.686;15.598;2023-03-04T04:09:50;99932.19;;;18.50;35.57
60212;BME280;46079;48.686;15.598;2023-03-04T04:12:16;99921.72;;;18.50;35.77
60212;BME280;46079;48.686;15.598;2023-03-04T04:14:42;99921.72;;;18.50;35.82
60212;BME280;46079;48.686;15.598;2023-03-04T04:17:08;99918.28;;;18.49;35.76
60212;BME280;46079;48.686;15.598;2023-03-04T04:19:33;99916.47;;;18.50;35.68
60212;BME280;46079;48.686;15.598;2023-03-04T04:21:59;99918.13;;;18.51;35.73
60212;BME280;46079;48.686;15.598;2023-03-04T04:24:25;99919.94;;;18.50;35.66
60212;BME280;46079;48.686;15.598;2023-03-04T04:26:50;99916.47;;;18.50;35.57
60212;BME280;46079;48.686;15.598;2023-03-04T04:29:16;99912.06;;;18.50;35.83
60212;BME280;46079;48.686;15.598;2023-03-04T04:31:42;99911.25;;;18.50;35.67
60212;BME280;46079;48.686;15.598;2023-03-04T04:34:08;99911.25;;;18.50;35.50
60212;BME280;46079;48.686;15.598;2023-03-04T04:36:33;99907.81;;;18.49;35.60
60212;BME280;46079;48.686;15.598;2023-03-04T04:38:59;99898.97;;;18.50;35.58
60212;BME280;46079;48.686;15.598;2023-03-04T04:41:29;99911.25;;;18.50;35.67
60212;BME280;46079;48.686;15.598;2023-03-04T04:43:56;99911.25;;;18.50;35.55
60212;BME280;46079;48.686;15.598;2023-03-04T04:46:22;99906.84;;;18.50;35.61
60212;BME280;46079;48.686;15.598;2023-03-04T04:48:47;99896.34;;;18.50;35.55
60212;BME280;46079;48.686;15.598;2023-03-04T04:51:13;99894.56;;;18.51;35.54
60212;BME280;46079;48.686;15.598;2023-03-04T04:53:38;99897.19;;;18.51;35.50
60212;BME280;46079;48.686;15.598;2023-03-04T04:56:13;99905.03;;;18.51;35.43
60212;BME280;46079;48.686;15.598;2023-03-04T04:58:39;99909.34;;;18.52;35.53
60212;BME280;46079;48.686;15.598;2023-03-04T05:01:04;99898.88;;;18.52;35.54
60212;BME280;46079;48.686;15.598;2023-03-04T05:03:31;99897.06;;;18.52;35.67
60212;BME280;46079;48.686;15.598;2023-03-04T05:05:57;99893.63;;;18.52;35.47
60212;BME280;46079;48.686;15.598;2023-03-04T05:08:22;99894.44;;;18.52;35.41
60212;BME280;46079;48.686;15.598;2023-03-04T05:10:48;99892.66;;;18.53;35.43
60212;BME280;46079;48.686;15.598;2023-03-04T05:13:13;99892.53;;;18.54;35.41
60212;BME280;46079;48.686;15.598;2023-03-04T05:15:38;99883.00;;;18.53;35.49
60212;BME280;46079;48.686;15.598;2023-03-04T05:18:05;99884.69;;;18.54;35.41
60212;BME280;46079;48.686;15.598;2023-03-04T05:20:31;99892.53;;;18.54;35.60
60212;BME280;46079;48.686;15.598;2023-03-04T05:22:56;99890.75;;;18.55;35.50
60212;BME280;46079;48.686;15.598;2023-03-04T05:25:22;99888.13;;;18.55;35.60
60212;BME280;46079;48.686;15.598;2023-03-04T05:27:47;99888.94;;;18.55;35.48
60212;BME280;46079;48.686;15.598;2023-03-04T05:30:13;99887.16;;;18.56;35.45
60212;BME280;46079;48.686;15.598;2023-03-04T05:32:38;99887.16;;;18.56;35.64
60212;BME280;46079;48.686;15.598;2023-03-04T05:35:07;99889.66;;;18.57;35.49
60212;BME280;46079;48.686;15.598;2023-03-04T05:37:33;99885.38;;;18.56;35.58
60212;BME280;46079;48.686;15.598;2023-03-04T05:39:58;99886.22;;;18.57;35.53
60212;BME280;46079;48.686;15.598;2023-03-04T05:42:23;99887.03;;;18.57;35.51
60212;BME280;46079;48.686;15.598;2023-03-04T05:44:49;99892.16;;;18.59;35.36
60212;BME280;46079;48.686;15.598;2023-03-04T05:47:14;99890.38;;;18.59;35.39
60212;BME280;46079;48.686;15.598;2023-03-04T05:49:40;99885.97;;;18.60;35.50
60212;BME280;46079;48.686;15.598;2023-03-04T05:52:06;99897.25;;;18.60;35.44
60212;BME280;46079;48.686;15.598;2023-03-04T05:54:31;99892.03;;;18.60;35.34
60212;BME280;46079;48.686;15.598;2023-03-04T05:56:56;99889.41;;;18.60;35.34
60212;BME280;46079;48.686;15.598;2023-03-04T05:59:22;99900.59;;;18.62;35.37
60212;BME280;46079;48.686;15.598;2023-03-04T06:01:48;99896.19;;;18.63;35.20
60212;BME280;46079;48.686;15.598;2023-03-04T06:04:14;99911.91;;;18.63;35.19
60212;BME280;46079;48.686;15.598;2023-03-04T06:06:39;99906.53;;;18.64;35.57
60212;BME280;46079;48.686;15.598;2023-03-04T06:09:05;99905.69;;;18.64;35.47
60212;BME280;46079;48.686;15.598;2023-03-04T06:11:30;99909.13;;;18.64;35.48
60212;BME280;46079;48.686;15.598;2023-03-04T06:13:56;99913.44;;;18.65;35.45
60212;BME280;46079;48.686;15.598;2023-03-04T06:16:21;99910.81;;;18.65;35.36
60212;BME280;46079;48.686;15.598;2023-03-04T06:18:46;99915.09;;;18.66;35.27
60212;BME280;46079;48.686;15.598;2023-03-04T06:21:12;99920.22;;;18.68;35.33
60212;BME280;46079;48.686;15.598;2023-03-04T06:23:37;99908.88;;;18.67;35.46
60212;BME280;46079;48.686;15.598;2023-03-04T06:26:03;99913.19;;;18.69;35.25
60212;BME280;46079;48.686;15.598;2023-03-04T06:28:28;99919.25;;;18.69;35.34
60212;BME280;46079;48.686;15.598;2023-03-04T06:30:55;99920.06;;;18.70;35.30
60212;BME280;46079;48.686;15.598;2023-03-04T06:33:21;99925.31;;;18.70;35.38
60212;BME280;46079;48.686;15.598;2023-03-04T06:35:46;99920.91;;;18.70;35.43
60212;BME280;46079;48.686;15.598;2023-03-04T06:38:12;99929.63;;;18.71;35.32
60212;BME280;46079;48.686;15.598;2023-03-04T06:40:38;99920.91;;;18.70;35.17
60212;BME280;46079;48.686;15.598;2023-03-04T06:43:03;99928.66;;;18.72;35.43
60212;BME280;46079;48.686;15.598;2023-03-04T06:45:29;99927.00;;;18.71;35.26
60212;BME280;46079;48.686;15.598;2023-03-04T06:47:54;99920.78;;;18.72;35.36
60212;BME280;46079;48.686;15.598;2023-03-04T06:50:19;99930.31;;;18.73;35.21
60212;BME280;46079;48.686;15.598;2023-03-04T06:52:45;99917.19;;;18.73;35.39
60212;BME280;46079;48.686;15.598;2023-03-04T06:55:11;99915.56;;;18.72;35.43
60212;BME280;46079;48.686;15.598;2023-03-04T06:57:37;99918.88;;;18.74;35.43
60212;BME280;46079;48.686;15.598;2023-03-04T07:00:03;99911.88;;;18.74;35.31
60212;BME280;46079;48.686;15.598;2023-03-04T07:02:39;99911.97;;;18.73;35.35
60212;BME280;46079;48.686;15.598;2023-03-04T07:05:04;99916.16;;;18.75;35.46
60212;BME280;46079;48.686;15.598;2023-03-04T07:07:30;99910.78;;;18.77;35.33
60212;BME280;46079;48.686;15.598;2023-03-04T07:09:55;99906.25;;;18.79;35.41
60212;BME280;46079;48.686;15.598;2023-03-04T07:12:21;99915.78;;;18.80;35.45
60212;BME280;46079;48.686;15.598;2023-03-04T07:14:46;99911.25;;;18.82;35.40
60212;BME280;46079;48.686;15.598;2023-03-04T07:17:12;99915.53;;;18.83;35.24
60212;BME280;46079;48.686;15.598;2023-03-04T07:19:37;99913.59;;;18.85;35.30
60212;BME280;46079;48.686;15.598;2023-03-04T07:22:02;99910.72;;;18.88;35.18
60212;BME280;46079;48.686;15.598;2023-03-04T07:24:28;99904.41;;;18.91;35.17
60212;BME280;46079;48.686;15.598;2023-03-04T07:26:53;99902.34;;;18.94;35.13
60212;BME280;46079;48.686;15.598;2023-03-04T07:29:19;99900.56;;;18.95;35.15
60212;BME280;46079;48.686;15.598;2023-03-04T07:31:44;99897.00;;;18.96;35.13
60212;BME280;46079;48.686;15.598;2023-03-04T07:34:12;99903.88;;;18.97;35.19
60212;BME280;46079;48.686;15.598;2023-03-04T07:36:38;99907.22;;;18.99;35.31
60212;BME280;46079;48.686;15.598;2023-03-04T07:39:04;99901.16;;;18.98;35.17
60212;BME280;46079;48.686;15.598;2023-03-04T07:41:30;99895.91;;;18.98;35.26
60212;BME280;46079;48.686;15.598;2023-03-04T07:43:56;99893.13;;;19.00;35.16
60212;BME280;46079;48.686;15.598;2023-03-04T07:46:23;99894.81;;;19.01;35.10
60212;BME280;46079;48.686;15.598;2023-03-04T07:48:48;99902.53;;;19.02;35.22
60212;BME280;46079;48.686;15.598;2023-03-04T07:51:17;99898.13;;;19.03;35.17
60212;BME280;46079;48.686;15.598;2023-03-04T07:53:45;99904.22;;;19.03;35.22
60212;BME280;46079;48.686;15.598;2023-03-04T07:56:12;99896.19;;;19.05;35.04
60212;BME280;46079;48.686;15.598;2023-03-04T07:58:38;99910.13;;;19.05;35.14
60212;BME280;46079;48.686;15.598;2023-03-04T08:01:16;99902.97;;;19.07;35.01
60212;BME280;46079;48.686;15.598;2023-03-04T08:03:42;99907.25;;;19.08;35.26
60212;BME280;46079;48.686;15.598;2023-03-04T08:06:10;99914.19;;;19.09;35.11
60212;BME280;46079;48.686;15.598;2023-03-04T08:08:36;99911.56;;;19.09;35.12
60212;BME280;46079;48.686;15.598;2023-03-04T08:11:06;99910.59;;;19.10;34.95
60212;BME280;46079;48.686;15.598;2023-03-04T08:13:33;99913.09;;;19.12;35.04
60212;BME280;46079;48.686;15.598;2023-03-04T08:15:59;99912.00;;;19.15;35.06
60212;BME280;46079;48.686;15.598;2023-03-04T08:18:24;99907.69;;;19.14;35.07
60212;BME280;46079;48.686;15.598;2023-03-04T08:20:50;99918.06;;;19.15;35.31
60212;BME280;46079;48.686;15.598;2023-03-04T08:23:16;99918.91;;;19.16;35.09
60212;BME280;46079;48.686;15.598;2023-03-04T08:25:42;99916.16;;;19.17;35.29
60212;BME280;46079;48.686;15.598;2023-03-04T08:28:08;99906.50;;;19.18;34.97
60212;BME280;46079;48.686;15.598;2023-03-04T08:30:34;99915.91;;;19.20;34.87
60212;BME280;46079;48.686;15.598;2023-03-04T08:33:01;99910.50;;;19.22;35.20
60212;BME280;46079;48.686;15.598;2023-03-04T08:35:28;99917.44;;;19.23;34.94
60212;BME280;46079;48.686;15.598;2023-03-04T08:37:53;99907.63;;;19.25;35.14
60212;BME280;46079;48.686;15.598;2023-03-04T08:40:19;99905.97;;;19.24;34.95
60212;BME280;46079;48.686;15.598;2023-03-04T08:42:44;99909.03;;;19.29;35.16
60212;BME280;46079;48.686;15.598;2023-03-04T08:45:10;99899.38;;;19.29;34.99
60212;BME280;46079;48.686;15.598;2023-03-04T08:47:36;99895.78;;;19.30;35.03
60212;BME280;46079;48.686;15.598;2023-03-04T08:50:03;99900.91;;;19.32;35.24
60212;BME280;46079;48.686;15.598;2023-03-04T08:52:29;99887.78;;;19.32;34.85
60212;BME280;46079;48.686;15.598;2023-03-04T08:54:55;99889.44;;;19.33;35.14
60212;BME280;46079;48.686;15.598;2023-03-04T08:57:21;99893.72;;;19.34;35.01
60212;BME280;46079;48.686;15.598;2023-03-04T08:59:46;99885.88;;;19.34;35.01
60212;BME280;46079;48.686;15.598;2023-03-04T09:02:12;99889.31;;;19.35;34.93
60212;BME280;46079;48.686;15.598;2023-03-04T09:04:37;99890.13;;;19.35;34.96
60212;BME280;46079;48.686;15.598;2023-03-04T09:07:02;99896.34;;;19.34;34.95
60212;BME280;46079;48.686;15.598;2023-03-04T09:09:28;99892.75;;;19.35;35.00
60212;BME280;46079;48.686;15.598;2023-03-04T09:11:53;99886.53;;;19.36;35.05
60212;BME280;46079;48.686;15.598;2023-03-04T09:14:19;99885.59;;;19.37;35.17
60212;BME280;46079;48.686;15.598;2023-03-04T09:16:44;99885.59;;;19.37;35.12
60212;BME280;46079;48.686;15.598;2023-03-04T09:19:09;99880.34;;;19.37;34.79
60212;BME280;46079;48.686;15.598;2023-03-04T09:21:35;99882.00;;;19.38;34.99
60212;BME280;46079;48.686;15.598;2023-03-04T09:24:00;99882.00;;;19.38;34.80
60212;BME280;46079;48.686;15.598;2023-03-04T09:26:28;99885.59;;;19.37;34.89
60212;BME280;46079;48.686;15.598;2023-03-04T09:28:59;99878.56;;;19.38;34.81
60212;BME280;46079;48.686;15.598;2023-03-04T09:31:26;99895.28;;;19.37;34.95
60212;BME280;46079;48.686;15.598;2023-03-04T09:33:53;99885.44;;;19.39;35.08
60212;BME280;46079;48.686;15.598;2023-03-04T09:36:19;99891.66;;;19.38;35.12
60212;BME280;46079;48.686;15.598;2023-03-04T09:38:45;99882.97;;;19.37;34.81
60212;BME280;46079;48.686;15.598;2023-03-04T09:41:23;99880.34;;;19.37;34.87
60212;BME280;46079;48.686;15.598;2023-03-04T09:44:05;99881.28;;;19.36;34.78
60212;BME280;46079;48.686;15.598;2023-03-04T09:46:37;99873.44;;;19.36;35.14
60212;BME280;46079;48.686;15.598;2023-03-04T09:49:04;99878.69;;;19.36;35.05
60212;BME280;46079;48.686;15.598;2023-03-04T09:57:15;99861.44;;;19.33;34.80
60212;BME280;46079;48.686;15.598;2023-03-04T09:59:52;99871.78;;;19.35;35.02
60212;BME280;46079;48.686;15.598;2023-03-04T10:02:39;99862.38;;;19.32;35.02
60212;BME280;46079;48.686;15.598;2023-03-04T10:05:14;99864.06;;;19.33;34.91
60212;BME280;46079;48.686;15.598;2023-03-04T10:07:42;99863.19;;;19.33;35.03
60212;BME280;46079;48.686;15.598;2023-03-04T10:10:15;99866.69;;;19.33;34.86
60212;BME280;46079;48.686;15.598;2023-03-04T10:12:43;99863.34;;;19.31;35.23
60212;BME280;46079;48.686;15.598;2023-03-04T10:15:22;99859.91;;;19.31;34.97
60212;BME280;46079;48.686;15.598;2023-03-04T10:17:56;99851.19;;;19.30;35.24
60212;BME280;46079;48.686;15.598;2023-03-04T10:20:53;99848.56;;;19.30;34.81
60212;BME280;46079;48.686;15.598;2023-03-04T10:23:25;99839.88;;;19.30;35.03
60212;BME280;46079;48.686;15.598;2023-03-04T10:25:50;99843.31;;;19.30;35.36
60212;BME280;46079;48.686;15.598;2023-03-04T10:28:36;99832.81;;;19.30;34.84
60212;BME280;46079;48.686;15.598;2023-03-04T10:33:38;99822.34;;;19.30;35.04
60212;BME280;46079;48.686;15.598;2023-03-04T10:36:05;99829.38;;;19.30;34.91
60212;BME280;46079;48.686;15.598;2023-03-04T10:38:39;99819.88;;;19.29;35.17
60212;BME280;46079;48.686;15.598;2023-03-04T10:41:17;99821.50;;;19.30;35.12
60212;BME280;46079;48.686;15.598;2023-03-04T10:43:48;99822.47;;;19.29;35.10
60212;BME280;46079;48.686;15.598;2023-03-04T10:46:14;99813.78;;;19.28;35.20
60212;BME280;46079;48.686;15.598;2023-03-04T10:48:42;99819.88;;;19.29;35.06
60212;BME280;46079;48.686;15.598;2023-03-04T10:51:18;99809.38;;;19.29;34.97
60212;BME280;46079;48.686;15.598;2023-03-04T10:53:46;99813.78;;;19.28;35.18
60212;BME280;46079;48.686;15.598;2023-03-04T11:04:39;99797.25;;;19.28;35.21
60212;BME280;46079;48.686;15.598;2023-03-04T11:07:09;99786.75;;;19.28;35.00
60212;BME280;46079;48.686;15.598;2023-03-04T11:09:35;99786.75;;;19.28;35.07
60212;BME280;46079;48.686;15.598;2023-03-04T11:12:01;99787.56;;;19.28;34.79
60212;BME280;46079;48.686;15.598;2023-03-04T11:14:40;99773.63;;;19.28;35.10
60212;BME280;46079;48.686;15.598;2023-03-04T11:19:50;99765.75;;;19.28;35.23
60212;BME280;46079;48.686;15.598;2023-03-04T11:22:19;99770.16;;;19.27;35.07
60212;BME280;46079;48.686;15.598;2023-03-04T11:24:53;99764.09;;;19.27;35.13
60212;BME280;46079;48.686;15.598;2023-03-04T11:27:24;99766.72;;;19.27;35.16
60212;BME280;46079;48.686;15.598;2023-03-04T11:29:54;99769.34;;;19.27;34.94
60212;BME280;46079;48.686;15.598;2023-03-04T11:32:36;99765.75;;;19.28;34.98
60212;BME280;46079;48.686;15.598;2023-03-04T11:36:03;99763.25;;;19.26;34.99
60212;BME280;46079;48.686;15.598;2023-03-04T11:38:07;99762.28;;;19.27;35.10
60212;BME280;46079;48.686;15.598;2023-03-04T11:40:38;99743.81;;;19.29;35.13
60212;BME280;46079;48.686;15.598;2023-03-04T11:43:12;99744.78;;;19.28;35.11
60212;BME280;46079;48.686;15.598;2023-03-04T11:48:47;99750.84;;;19.28;34.90
60212;BME280;46079;48.686;15.598;2023-03-04T11:57:02;99745.63;;;19.28;34.92
60212;BME280;46079;48.686;15.598;2023-03-04T12:04:39;99726.44;;;19.28;35.13
60212;BME280;46079;48.686;15.598;2023-03-04T12:10:04;99726.44;;;19.28;35.04
60212;BME280;46079;48.686;15.598;2023-03-04T12:12:57;99723.81;;;19.28;35.10
60212;BME280;46079;48.686;15.598;2023-03-04T12:32:05;99695.09;;;19.26;35.15
60212;BME280;46079;48.686;15.598;2023-03-04T12:34:43;99695.09;;;19.26;35.29
60212;BME280;46079;48.686;15.598;2023-03-04T12:40:18;99692.47;;;19.26;34.94
60212;BME280;46079;48.686;15.598;2023-03-04T12:50:52;99675.91;;;19.26;35.32
60212;BME280;46079;48.686;15.598;2023-03-04T12:56:25;99682.09;;;19.25;35.09
60212;BME280;46079;48.686;15.598;2023-03-04T12:58:53;99667.34;;;19.24;35.23
60212;BME280;46079;48.686;15.598;2023-03-04T13:01:41;99669.97;;;19.24;35.22
60212;BME280;46079;48.686;15.598;2023-03-04T13:07:12;99669.13;;;19.23;35.55
60212;BME280;46079;48.686;15.598;2023-03-04T13:10:12;99662.22;;;19.22;35.32
60212;BME280;46079;48.686;15.598;2023-03-04T13:12:57;99666.63;;;19.22;35.46
60212;BME280;46079;48.686;15.598;2023-03-04T13:18:01;99656.31;;;19.20;35.45
60212;BME280;46079;48.686;15.598;2023-03-04T13:25:47;99649.25;;;19.21;35.28
60212;BME280;46079;48.686;15.598;2023-03-04T13:28:17;99647.47;;;19.21;35.31
60212;BME280;46079;48.686;15.598;2023-03-04T13:41:23;99639.88;;;19.18;35.52
60212;BME280;46079;48.686;15.598;2023-03-04T13:44:01;99645.94;;;19.19;35.57
60212;BME280;46079;48.686;15.598;2023-03-04T13:46:28;99645.13;;;19.18;35.79
60212;BME280;46079;48.686;15.598;2023-03-04T13:56:26;99641.66;;;19.18;35.60
60212;BME280;46079;48.686;15.598;2023-03-04T14:01:29;99639.06;;;19.18;35.64
60212;BME280;46079;48.686;15.598;2023-03-04T14:03:57;99633.81;;;19.18;35.75
60212;BME280;46079;48.686;15.598;2023-03-04T14:06:26;99623.31;;;19.18;35.76
60212;BME280;46079;48.686;15.598;2023-03-04T14:08:53;99635.44;;;19.19;35.84
60212;BME280;46079;48.686;15.598;2023-03-04T14:11:33;99637.38;;;19.17;35.59
60212;BME280;46079;48.686;15.598;2023-03-04T14:14:05;99639.88;;;19.18;35.57
60212;BME280;46079;48.686;15.598;2023-03-04T14:16:38;99645.13;;;19.18;35.70
60212;BME280;46079;48.686;15.598;2023-03-04T14:19:06;99655.72;;;19.17;35.64
60212;BME280;46079;48.686;15.598;2023-03-04T14:21:37;99654.78;;;19.18;35.83
60212;BME280;46079;48.686;15.598;2023-03-04T14:24:09;99660.03;;;19.18;35.75
60212;BME280;46079;48.686;15.598;2023-03-04T14:26:36;99656.56;;;19.17;35.71
60212;BME280;46079;48.686;15.598;2023-03-04T14:29:02;99652.16;;;19.18;35.67